Time;durP1;ratioP1;P1;durP2;ratioP2;P2;SDS_P1;SDS_P2;PMS_P1;PMS_P2;Temp;Humidity;BMP_temperature;BMP_pressure;BME280_temperature;BME280_humidity;BME280_pressure;Samples;Min_cycle;Max_cycle;Signal;HPM_P1;HPM_P2
2022/03/19 00:01:33;;;;;;;653.30;549.85;;;;;;;;;;5040800;28;20032;-80
2022/03/19 00:04:00;;;;;;;817.83;658.25;;;;;;;;;;5061248;28;20087;-81
2022/03/19 00:06:25;;;;;;;705.42;576.78;;;;;;;;;;5057364;28;20032;-81
2022/03/19 00:08:50;;;;;;;730.30;601.38;;;;;;;;;;5040530;28;20399;-81
2022/03/19 00:11:16;;;;;;;993.85;756.50;;;;;;;;;;5074170;28;20040;-81
2022/03/19 00:13:41;;;;;;;849.50;672.83;;;;;;;;;;5057526;28;20032;-81
2022/03/19 00:16:07;;;;;;;832.83;666.80;;;;;;;;;;5057173;28;20036;-81
2022/03/19 00:18:33;;;;;;;802.63;646.22;;;;;;;;;;5057340;28;20480;-81
2022/03/19 00:20:58;;;;;;;864.53;701.40;;;;;;;;;;5074030;28;20116;-81
2022/03/19 00:23:24;;;;;;;802.50;652.13;;;;;;;;;;5074093;28;20089;-81
2022/03/19 00:25:49;;;;;;;800.30;649.50;;;;;;;;;;5073944;28;20040;-81
2022/03/19 00:28:18;;;;;;;766.53;636.55;;;;;;;;;;5056976;28;20032;-81
2022/03/19 00:30:45;;;;;;;735.30;614.10;;;;;;;;;;5057699;28;20031;-81
2022/03/19 00:33:12;;;;;;;775.10;643.38;;;;;;;;;;5040989;28;20105;-81
2022/03/19 00:35:38;;;;;;;803.55;665.40;;;;;;;;;;5086309;28;20035;-80
2022/03/19 00:38:04;;;;;;;779.60;650.75;;;;;;;;;;5060436;28;20149;-81
2022/03/19 00:40:30;;;;;;;767.30;644.53;;;;;;;;;;5060604;28;20039;-80
2022/03/19 00:42:55;;;;;;;754.45;636.38;;;;;;;;;;5077054;28;20039;-81
2022/03/19 00:45:21;;;;;;;720.88;611.88;;;;;;;;;;5076767;28;20451;-81
2022/03/19 00:47:46;;;;;;;719.72;608.35;;;;;;;;;;5076827;28;20142;-81
2022/03/19 00:50:12;;;;;;;678.15;582.78;;;;;;;;;;5076965;28;20036;-80
2022/03/19 00:52:37;;;;;;;672.08;573.25;;;;;;;;;;5073269;28;20036;-81
2022/03/19 00:55:03;;;;;;;663.30;570.58;;;;;;;;;;5073530;28;20028;-81
2022/03/19 00:57:37;;;;;;;645.25;557.63;;;;;;;;;;5046385;28;20056;-80
2022/03/19 01:00:04;;;;;;;628.90;544.60;;;;;;;;;;5070647;28;20027;-81
2022/03/19 01:02:29;;;;;;;625.38;534.22;;;;;;;;;;5060536;28;20027;-80
2022/03/19 01:04:55;;;;;;;610.42;530.03;;;;;;;;;;5078315;28;20063;-81
2022/03/19 01:07:20;;;;;;;590.58;508.45;;;;;;;;;;5073271;28;20032;-80
2022/03/19 01:09:46;;;;;;;585.47;500.75;;;;;;;;;;5056968;28;20032;-80
2022/03/19 01:12:11;;;;;;;575.67;494.27;;;;;;;;;;5073084;28;20132;-80
2022/03/19 01:14:37;;;;;;;565.92;480.08;;;;;;;;;;5056667;28;20505;-80
2022/03/19 01:17:03;;;;;;;546.15;465.00;;;;;;;;;;5040252;28;20040;-80
2022/03/19 01:22:13;;;;;;;530.05;452.27;;;;;;;;;;5076260;28;20028;-80
2022/03/19 01:24:38;;;;;;;506.88;436.38;;;;;;;;;;5056606;28;20088;-81
2022/03/19 01:27:03;;;;;;;509.20;438.17;;;;;;;;;;5072930;28;20032;-81
2022/03/19 01:29:29;;;;;;;494.67;418.70;;;;;;;;;;5040227;28;20097;-81
2022/03/19 01:31:54;;;;;;;498.85;425.50;;;;;;;;;;5073060;28;20105;-81
2022/03/19 01:34:20;;;;;;;485.27;406.80;;;;;;;;;;5057795;28;20051;-80
2022/03/19 01:36:45;;;;;;;488.48;420.55;;;;;;;;;;5076484;28;20480;-81
2022/03/19 01:39:11;;;;;;;474.13;402.20;;;;;;;;;;5076730;28;20420;-80
2022/03/19 01:41:41;;;;;;;466.92;388.98;;;;;;;;;;5076041;28;20058;-81
2022/03/19 01:44:06;;;;;;;459.42;380.15;;;;;;;;;;5076908;28;20505;-80
2022/03/19 01:46:54;;;;;;;443.15;370.52;;;;;;;;;;5076178;28;20047;-80
2022/03/19 01:49:20;;;;;;;441.05;363.58;;;;;;;;;;5092989;28;20447;-81
2022/03/19 01:51:45;;;;;;;432.05;357.70;;;;;;;;;;5072764;28;20040;-80
2022/03/19 01:54:11;;;;;;;417.45;341.80;;;;;;;;;;5069285;28;20040;-81
2022/03/19 01:56:37;;;;;;;408.55;334.45;;;;;;;;;;5079701;28;20062;-80
2022/03/19 01:59:02;;;;;;;401.70;328.40;;;;;;;;;;5076697;28;20062;-81
2022/03/19 02:01:27;;;;;;;385.95;320.02;;;;;;;;;;5059537;28;20036;-80
2022/03/19 02:03:53;;;;;;;381.48;311.70;;;;;;;;;;5063439;28;20075;-81
2022/03/19 02:06:20;;;;;;;374.75;313.55;;;;;;;;;;5076624;28;20040;-80
2022/03/19 02:08:47;;;;;;;374.73;306.67;;;;;;;;;;5076601;28;20059;-81
2022/03/19 02:11:12;;;;;;;360.83;296.92;;;;;;;;;;5076693;28;20039;-81
2022/03/19 02:13:38;;;;;;;348.83;286.23;;;;;;;;;;5059233;28;20098;-81
2022/03/19 02:16:04;;;;;;;340.15;277.52;;;;;;;;;;5076069;28;20098;-81
2022/03/19 02:18:29;;;;;;;332.10;274.08;;;;;;;;;;5042958;28;20101;-80
2022/03/19 02:20:56;;;;;;;319.92;263.17;;;;;;;;;;5076151;28;20032;-80
2022/03/19 02:26:06;;;;;;;305.95;250.13;;;;;;;;;;5080874;28;20046;-80
2022/03/19 02:28:32;;;;;;;296.42;246.30;;;;;;;;;;5076250;28;20036;-81
2022/03/19 02:30:57;;;;;;;291.90;240.75;;;;;;;;;;5075757;28;20417;-81
2022/03/19 02:33:22;;;;;;;286.83;238.10;;;;;;;;;;5075781;28;20040;-81
2022/03/19 02:35:48;;;;;;;275.42;231.13;;;;;;;;;;5075660;28;20411;-80
2022/03/19 02:38:13;;;;;;;270.83;226.68;;;;;;;;;;5075802;28;20051;-81
2022/03/19 02:40:39;;;;;;;274.15;228.32;;;;;;;;;;5075580;28;20387;-81
2022/03/19 02:43:04;;;;;;;261.20;214.02;;;;;;;;;;5075739;28;20039;-81
2022/03/19 02:45:30;;;;;;;251.70;207.55;;;;;;;;;;5059026;28;20039;-81
2022/03/19 02:47:58;;;;;;;249.10;207.07;;;;;;;;;;5064108;28;20063;-80
2022/03/19 02:50:25;;;;;;;243.13;201.35;;;;;;;;;;5076131;28;20036;-80
2022/03/19 02:52:50;;;;;;;237.77;194.68;;;;;;;;;;5077056;28;20102;-80
2022/03/19 02:55:16;;;;;;;235.63;189.90;;;;;;;;;;5078222;28;20176;-80
2022/03/19 02:57:41;;;;;;;228.57;184.80;;;;;;;;;;5058754;28;20036;-80
2022/03/19 03:00:07;;;;;;;221.45;180.15;;;;;;;;;;5095793;28;20497;-81
2022/03/19 03:02:33;;;;;;;212.60;172.18;;;;;;;;;;5077217;28;20031;-80
2022/03/19 03:04:58;;;;;;;212.15;174.25;;;;;;;;;;5073619;28;20038;-80
2022/03/19 03:07:27;;;;;;;209.07;168.95;;;;;;;;;;5091366;28;20058;-81
2022/03/19 03:09:52;;;;;;;207.98;167.80;;;;;;;;;;5074541;28;20093;-80
2022/03/19 03:12:18;;;;;;;196.68;160.45;;;;;;;;;;5074238;28;20040;-80
2022/03/19 03:14:43;;;;;;;190.05;153.82;;;;;;;;;;5091532;28;20108;-80
2022/03/19 03:17:09;;;;;;;189.80;154.10;;;;;;;;;;5074825;28;20036;-80
2022/03/19 03:19:35;;;;;;;185.10;150.02;;;;;;;;;;5074651;28;20052;-80
2022/03/19 03:22:00;;;;;;;179.55;144.05;;;;;;;;;;5058346;28;20409;-81
2022/03/19 03:24:26;;;;;;;180.43;145.00;;;;;;;;;;5074533;28;20032;-81
2022/03/19 03:26:52;;;;;;;179.05;140.93;;;;;;;;;;5075059;28;20405;-81
2022/03/19 03:29:17;;;;;;;169.13;132.48;;;;;;;;;;5091732;28;20089;-81
2022/03/19 03:31:43;;;;;;;166.35;136.02;;;;;;;;;;5074841;28;20464;-80
2022/03/19 03:34:08;;;;;;;159.40;128.25;;;;;;;;;;5091889;28;20046;-81
2022/03/19 03:36:37;;;;;;;159.55;127.97;;;;;;;;;;5111557;28;20031;-81
2022/03/19 03:39:02;;;;;;;152.52;123.57;;;;;;;;;;5061281;28;20032;-80
2022/03/19 03:41:28;;;;;;;144.23;119.65;;;;;;;;;;5077295;28;20081;-80
2022/03/19 03:43:54;;;;;;;150.40;119.78;;;;;;;;;;5094890;28;20140;-80
2022/03/19 03:46:19;;;;;;;144.15;116.78;;;;;;;;;;5060956;28;20037;-80
2022/03/19 03:48:44;;;;;;;144.90;117.53;;;;;;;;;;5094605;28;20071;-80
2022/03/19 03:51:11;;;;;;;139.65;111.32;;;;;;;;;;5074021;28;20502;-81
2022/03/19 03:53:36;;;;;;;135.35;110.97;;;;;;;;;;5040877;28;20028;-80
2022/03/19 03:56:03;;;;;;;134.82;106.07;;;;;;;;;;5057460;28;20127;-80
2022/03/19 03:58:28;;;;;;;126.53;102.82;;;;;;;;;;5073419;28;20036;-81
2022/03/19 04:00:53;;;;;;;129.98;102.82;;;;;;;;;;5061170;28;20550;-80
2022/03/19 04:03:20;;;;;;;123.03;98.43;;;;;;;;;;5061099;28;20031;-80
2022/03/19 04:05:45;;;;;;;121.32;98.03;;;;;;;;;;5076430;28;20031;-81
2022/03/19 04:08:10;;;;;;;117.47;95.93;;;;;;;;;;5077242;28;20820;-81
2022/03/19 04:10:36;;;;;;;119.45;96.40;;;;;;;;;;5077683;28;20036;-81
2022/03/19 04:13:01;;;;;;;113.57;89.50;;;;;;;;;;5094364;28;20051;-81
2022/03/19 04:15:27;;;;;;;107.78;86.60;;;;;;;;;;5077548;28;20058;-81
2022/03/19 04:17:52;;;;;;;107.30;84.78;;;;;;;;;;5077241;28;20047;-81
2022/03/19 04:20:18;;;;;;;103.45;83.97;;;;;;;;;;5094276;28;20036;-80
2022/03/19 04:22:45;;;;;;;104.90;85.93;;;;;;;;;;5094153;28;20039;-80
2022/03/19 04:25:11;;;;;;;98.47;78.90;;;;;;;;;;5060886;28;20092;-81
2022/03/19 04:27:37;;;;;;;98.05;78.70;;;;;;;;;;5111155;28;20054;-81
2022/03/19 04:30:03;;;;;;;97.85;76.97;;;;;;;;;;5094609;28;20055;-81
2022/03/19 04:32:29;;;;;;;91.78;73.32;;;;;;;;;;5077243;28;20470;-81
2022/03/19 04:34:54;;;;;;;89.90;72.80;;;;;;;;;;5057169;28;20024;-81
2022/03/19 04:37:19;;;;;;;89.55;69.78;;;;;;;;;;5091737;28;20107;-81
2022/03/19 04:39:45;;;;;;;89.95;72.72;;;;;;;;;;5077670;28;20032;-80
2022/03/19 04:42:11;;;;;;;87.20;69.35;;;;;;;;;;5076828;28;20046;-81
2022/03/19 04:44:36;;;;;;;84.38;67.82;;;;;;;;;;5077218;28;20414;-81
2022/03/19 04:47:02;;;;;;;77.60;63.05;;;;;;;;;;5076988;28;20043;-81
2022/03/19 04:49:28;;;;;;;75.63;62.17;;;;;;;;;;5077008;28;20092;-81
2022/03/19 04:51:53;;;;;;;78.00;61.42;;;;;;;;;;5073419;28;20048;-80
2022/03/19 04:54:20;;;;;;;74.32;59.10;;;;;;;;;;5057020;28;20032;-80
2022/03/19 04:56:45;;;;;;;74.03;58.50;;;;;;;;;;5077373;28;20027;-81
2022/03/19 04:59:11;;;;;;;72.75;57.00;;;;;;;;;;5073792;28;20042;-81
2022/03/19 05:01:37;;;;;;;73.30;56.42;;;;;;;;;;5040449;28;20040;-81
2022/03/19 05:04:03;;;;;;;68.60;54.90;;;;;;;;;;5061494;28;20086;-80
2022/03/19 05:06:28;;;;;;;67.88;53.10;;;;;;;;;;5056936;28;20039;-81
2022/03/19 05:11:38;;;;;;;67.15;50.50;;;;;;;;;;5075910;28;20032;-80
2022/03/19 05:14:04;;;;;;;64.32;50.80;;;;;;;;;;5056480;28;20081;-80
2022/03/19 05:16:30;;;;;;;60.28;48.25;;;;;;;;;;5073503;28;20043;-80
2022/03/19 05:18:56;;;;;;;62.25;49.97;;;;;;;;;;5073351;28;20044;-80
2022/03/19 05:21:21;;;;;;;59.72;46.90;;;;;;;;;;5056628;28;20038;-80
2022/03/19 05:23:47;;;;;;;61.67;46.78;;;;;;;;;;5073678;28;20087;-81
2022/03/19 05:26:13;;;;;;;57.67;46.15;;;;;;;;;;5056710;28;20024;-81
2022/03/19 05:28:38;;;;;;;55.47;45.38;;;;;;;;;;5056725;28;20409;-81
2022/03/19 05:31:04;;;;;;;55.75;42.97;;;;;;;;;;5077086;28;20038;-81
2022/03/19 05:36:13;;;;;;;53.30;42.47;;;;;;;;;;5097356;28;20063;-81
2022/03/19 05:38:39;;;;;;;52.60;41.45;;;;;;;;;;5080708;28;20212;-81
2022/03/19 05:41:04;;;;;;;49.75;40.15;;;;;;;;;;5080300;28;20043;-81
2022/03/19 05:43:30;;;;;;;49.42;38.45;;;;;;;;;;5063732;28;20046;-80
2022/03/19 05:45:55;;;;;;;48.95;36.67;;;;;;;;;;5063190;28;20076;-81
2022/03/19 05:48:21;;;;;;;47.10;39.35;;;;;;;;;;5096606;28;20055;-81
2022/03/19 05:50:46;;;;;;;45.03;36.25;;;;;;;;;;5080064;28;20105;-81
2022/03/19 05:53:12;;;;;;;46.88;36.95;;;;;;;;;;5080615;28;20043;-81
2022/03/19 05:55:37;;;;;;;43.88;35.30;;;;;;;;;;5079828;28;20074;-81
2022/03/19 05:58:03;;;;;;;46.28;37.72;;;;;;;;;;5079943;28;20040;-81
2022/03/19 06:00:28;;;;;;;42.70;33.30;;;;;;;;;;5059825;28;20063;-81
2022/03/19 06:02:53;;;;;;;44.40;33.83;;;;;;;;;;5059630;28;20486;-81
2022/03/19 06:05:19;;;;;;;49.72;33.22;;;;;;;;;;5093982;28;20095;-81
2022/03/19 06:07:44;;;;;;;50.83;33.03;;;;;;;;;;5090866;28;20407;-81
2022/03/19 06:10:10;;;;;;;42.40;31.13;;;;;;;;;;5094108;28;20039;-81
2022/03/19 06:12:36;;;;;;;40.13;31.45;;;;;;;;;;5078451;28;20063;-81
2022/03/19 06:15:01;;;;;;;41.53;30.75;;;;;;;;;;5063223;28;20038;-81
2022/03/19 06:17:27;;;;;;;41.55;29.98;;;;;;;;;;5058815;28;20044;-80
2022/03/19 06:19:54;;;;;;;39.70;30.73;;;;;;;;;;5059036;28;20050;-80
2022/03/19 06:22:19;;;;;;;40.67;30.15;;;;;;;;;;5076947;28;20040;-81
2022/03/19 06:24:45;;;;;;;35.25;27.30;;;;;;;;;;5087636;28;20093;-81
2022/03/19 06:27:10;;;;;;;39.50;29.50;;;;;;;;;;5079392;28;20409;-81
2022/03/19 06:29:36;;;;;;;36.00;27.25;;;;;;;;;;5080008;28;20758;-79
2022/03/19 06:32:01;;;;;;;33.67;26.55;;;;;;;;;;5095652;28;20039;-80
2022/03/19 06:34:30;;;;;;;29.25;23.58;;;;;;;;;;5096056;28;20027;-80
2022/03/19 06:39:41;;;;;;;30.58;23.67;;;;;;;;;;5098508;28;20028;-81
2022/03/19 06:42:07;;;;;;;36.60;24.38;;;;;;;;;;5062327;28;20435;-80
2022/03/19 06:44:33;;;;;;;28.13;20.95;;;;;;;;;;5079717;28;20101;-77
2022/03/19 06:46:59;;;;;;;30.40;20.65;;;;;;;;;;5095779;28;20040;-79
2022/03/19 06:49:26;;;;;;;28.55;20.65;;;;;;;;;;5062318;28;20524;-79
2022/03/19 06:51:51;;;;;;;31.15;20.17;;;;;;;;;;5095600;28;20031;-79
2022/03/19 06:54:16;;;;;;;28.48;20.13;;;;;;;;;;5078964;28;20126;-79
2022/03/19 06:56:42;;;;;;;28.77;19.02;;;;;;;;;;5078773;28;20039;-79
2022/03/19 06:59:07;;;;;;;26.10;17.88;;;;;;;;;;5095837;28;20110;-79
2022/03/19 07:01:36;;;;;;;27.23;17.90;;;;;;;;;;5094986;28;20027;-79
2022/03/19 07:04:01;;;;;;;25.00;18.38;;;;;;;;;;5091063;28;20050;-79
2022/03/19 07:06:27;;;;;;;24.35;17.50;;;;;;;;;;5073360;28;20036;-79
2022/03/19 07:08:52;;;;;;;22.48;16.45;;;;;;;;;;5090551;28;20122;-79
2022/03/19 07:11:18;;;;;;;22.23;16.30;;;;;;;;;;5057543;28;20054;-79
2022/03/19 07:13:43;;;;;;;22.15;16.00;;;;;;;;;;5057970;28;20398;-79
2022/03/19 07:16:09;;;;;;;19.80;14.50;;;;;;;;;;5073378;28;20035;-79
2022/03/19 07:18:34;;;;;;;23.38;14.82;;;;;;;;;;5074841;28;20054;-78
2022/03/19 07:21:00;;;;;;;19.27;14.10;;;;;;;;;;5074388;28;20039;-78
2022/03/19 07:23:25;;;;;;;19.95;14.73;;;;;;;;;;5073644;28;20074;-78
2022/03/19 07:25:51;;;;;;;18.60;12.20;;;;;;;;;;5056937;28;20028;-78
2022/03/19 07:28:18;;;;;;;15.55;12.07;;;;;;;;;;5056831;28;20498;-78
2022/03/19 07:30:44;;;;;;;21.15;11.73;;;;;;;;;;5074004;28;20032;-78
2022/03/19 07:33:11;;;;;;;16.67;11.48;;;;;;;;;;5074551;28;20063;-78
2022/03/19 07:35:38;;;;;;;16.08;10.27;;;;;;;;;;5090837;28;20449;-78
2022/03/19 07:38:05;;;;;;;14.32;10.00;;;;;;;;;;5057253;28;20040;-78
2022/03/19 07:43:15;;;;;;;13.80;8.70;;;;;;;;;;5083136;28;20468;-78
2022/03/19 07:45:41;;;;;;;12.55;8.15;;;;;;;;;;5094577;28;20035;-78
2022/03/19 07:48:06;;;;;;;15.57;8.50;;;;;;;;;;5111439;28;20521;-78
2022/03/19 07:50:32;;;;;;;11.98;8.82;;;;;;;;;;5077747;28;20091;-80
2022/03/19 07:52:58;;;;;;;13.35;7.85;;;;;;;;;;5058089;28;20032;-78
2022/03/19 07:55:24;;;;;;;13.00;7.63;;;;;;;;;;5057454;28;20119;-78
2022/03/19 07:57:50;;;;;;;12.45;7.88;;;;;;;;;;5070028;28;20059;-78
2022/03/19 08:00:15;;;;;;;10.52;7.22;;;;;;;;;;5074207;28;20044;-78
2022/03/19 08:02:41;;;;;;;13.23;7.25;;;;;;;;;;5047790;28;20043;-78
2022/03/19 08:05:07;;;;;;;11.40;7.82;;;;;;;;;;5090027;28;20107;-78
2022/03/19 08:07:34;;;;;;;11.18;6.80;;;;;;;;;;5090606;28;20089;-78
2022/03/19 08:09:59;;;;;;;8.48;6.30;;;;;;;;;;5040823;28;20028;-78
2022/03/19 08:12:27;;;;;;;8.48;6.13;;;;;;;;;;5057539;28;20449;-78
2022/03/19 08:14:53;;;;;;;10.52;6.55;;;;;;;;;;5090819;28;20040;-78
2022/03/19 08:17:18;;;;;;;9.85;5.82;;;;;;;;;;5057097;28;20106;-76
2022/03/19 08:19:45;;;;;;;9.25;6.63;;;;;;;;;;5073838;28;20044;-77
2022/03/19 08:22:10;;;;;;;10.82;6.65;;;;;;;;;;5074256;28;20567;-78
2022/03/19 08:24:36;;;;;;;9.10;5.70;;;;;;;;;;5057236;28;20032;-80
2022/03/19 08:27:01;;;;;;;7.57;5.05;;;;;;;;;;5057226;28;20085;-80
2022/03/19 08:29:27;;;;;;;8.35;5.00;;;;;;;;;;5057224;28;20036;-79
2022/03/19 08:31:53;;;;;;;7.72;4.22;;;;;;;;;;5073688;28;20043;-79
2022/03/19 08:34:19;;;;;;;8.02;3.97;;;;;;;;;;5058178;28;20032;-80
2022/03/19 08:36:44;;;;;;;9.02;4.63;;;;;;;;;;5060628;28;20553;-80
2022/03/19 08:41:54;;;;;;;7.95;4.90;;;;;;;;;;5096554;28;20505;-80
2022/03/19 08:44:20;;;;;;;8.52;4.28;;;;;;;;;;5077651;28;20119;-78
2022/03/19 08:46:45;;;;;;;10.18;4.47;;;;;;;;;;5076762;28;20103;-79
2022/03/19 08:49:11;;;;;;;10.38;4.00;;;;;;;;;;5077414;28;20077;-80
2022/03/19 08:51:39;;;;;;;15.70;4.53;;;;;;;;;;5089908;28;20111;-80
2022/03/19 08:54:06;;;;;;;31.55;5.60;;;;;;;;;;5074358;28;20538;-79
2022/03/19 08:56:31;;;;;;;11.10;4.07;;;;;;;;;;5074844;28;20032;-79
2022/03/19 08:58:57;;;;;;;27.95;4.68;;;;;;;;;;5057032;28;20032;-79
2022/03/19 09:01:23;;;;;;;22.00;5.45;;;;;;;;;;5057336;28;20112;-80
2022/03/19 09:03:48;;;;;;;11.70;4.10;;;;;;;;;;5075702;28;20043;-80
2022/03/19 09:06:14;;;;;;;8.65;3.28;;;;;;;;;;5044484;28;20078;-79
2022/03/19 09:08:46;;;;;;;11.45;3.00;;;;;;;;;;5077912;28;20052;-81
2022/03/19 09:11:12;;;;;;;36.40;5.00;;;;;;;;;;5061097;28;20097;-81
2022/03/19 09:13:38;;;;;;;15.82;3.30;;;;;;;;;;5077601;28;20512;-79
2022/03/19 09:16:04;;;;;;;8.40;2.85;;;;;;;;;;5077479;28;20036;-79
2022/03/19 09:18:30;;;;;;;9.10;2.80;;;;;;;;;;5060895;28;20477;-79
2022/03/19 09:20:55;;;;;;;7.97;2.88;;;;;;;;;;5094197;28;20046;-78
2022/03/19 09:23:21;;;;;;;7.53;2.25;;;;;;;;;;5094456;28;20036;-80
2022/03/19 09:25:46;;;;;;;12.63;2.67;;;;;;;;;;5043677;28;20036;-81
2022/03/19 09:28:12;;;;;;;8.63;2.33;;;;;;;;;;5077361;28;20036;-80
2022/03/19 09:30:37;;;;;;;6.60;2.03;;;;;;;;;;5077080;28;20062;-81
2022/03/19 09:33:03;;;;;;;6.15;1.90;;;;;;;;;;5094052;28;20044;-81
2022/03/19 09:35:28;;;;;;;13.40;3.08;;;;;;;;;;5051022;28;20040;-81
2022/03/19 09:37:54;;;;;;;6.45;1.95;;;;;;;;;;5060312;28;20044;-80
2022/03/19 09:40:19;;;;;;;9.70;1.95;;;;;;;;;;5043708;28;20032;-81
2022/03/19 09:42:53;;;;;;;8.05;1.90;;;;;;;;;;5060230;28;20028;-81
2022/03/19 09:45:20;;;;;;;8.27;2.22;;;;;;;;;;5043876;28;20119;-81
2022/03/19 09:47:46;;;;;;;5.90;1.95;;;;;;;;;;5076803;28;20032;-81
2022/03/19 09:50:12;;;;;;;5.60;1.60;;;;;;;;;;5060260;28;20413;-81
2022/03/19 09:52:37;;;;;;;5.72;1.45;;;;;;;;;;5056362;28;20048;-81
2022/03/19 09:55:04;;;;;;;4.68;1.67;;;;;;;;;;5076393;28;20028;-80
2022/03/19 09:57:29;;;;;;;14.52;2.53;;;;;;;;;;5066111;28;20032;-81
2022/03/19 09:59:54;;;;;;;4.95;1.10;;;;;;;;;;5072971;28;20050;-80
2022/03/19 10:02:20;;;;;;;5.32;1.50;;;;;;;;;;5059943;28;20494;-78
2022/03/19 10:04:45;;;;;;;7.80;1.60;;;;;;;;;;5076178;28;20047;-78
2022/03/19 10:09:56;;;;;;;6.45;1.20;;;;;;;;;;5093098;28;20036;-78
2022/03/19 10:12:25;;;;;;;4.13;0.98;;;;;;;;;;5093376;28;20040;-78
2022/03/19 10:14:53;;;;;;;5.13;1.30;;;;;;;;;;5076273;28;20024;-78
2022/03/19 10:17:31;;;;;;;5.13;1.48;;;;;;;;;;5059699;28;20075;-78
2022/03/19 10:20:01;;;;;;;4.30;1.10;;;;;;;;;;5093206;28;20103;-80
2022/03/19 10:22:28;;;;;;;4.32;1.70;;;;;;;;;;5059885;28;20422;-79
2022/03/19 10:24:57;;;;;;;2.58;1.00;;;;;;;;;;5092771;28;20575;-80
2022/03/19 10:27:23;;;;;;;2.72;1.00;;;;;;;;;;5076521;28;20106;-80
2022/03/19 10:30:00;;;;;;;2.83;1.30;;;;;;;;;;5092960;28;20521;-80
2022/03/19 10:32:27;;;;;;;3.30;1.08;;;;;;;;;;5092897;28;20028;-80
2022/03/19 10:34:54;;;;;;;2.50;1.02;;;;;;;;;;5095663;28;20486;-80
2022/03/19 10:37:36;;;;;;;4.78;1.30;;;;;;;;;;5059556;28;20024;-81
2022/03/19 10:40:03;;;;;;;3.85;1.30;;;;;;;;;;5075790;28;20040;-80
2022/03/19 10:42:38;;;;;;;2.55;0.90;;;;;;;;;;5076155;28;20020;-81
2022/03/19 10:45:06;;;;;;;2.63;1.00;;;;;;;;;;5060032;28;20039;-81
2022/03/19 10:47:39;;;;;;;2.80;0.90;;;;;;;;;;5075153;28;20043;-80
2022/03/19 10:50:04;;;;;;;3.92;0.98;;;;;;;;;;5058710;28;20044;-81
2022/03/19 10:52:30;;;;;;;4.18;1.15;;;;;;;;;;5090772;28;20034;-81
2022/03/19 10:54:55;;;;;;;2.20;0.88;;;;;;;;;;5079264;28;20130;-81
2022/03/19 10:57:21;;;;;;;3.03;0.80;;;;;;;;;;5078833;28;20031;-81
2022/03/19 10:59:46;;;;;;;2.08;1.20;;;;;;;;;;5092366;28;20112;-81
2022/03/19 11:02:12;;;;;;;2.65;0.88;;;;;;;;;;5045090;28;20051;-80
2022/03/19 11:04:37;;;;;;;2.10;1.02;;;;;;;;;;5058502;28;20036;-80
2022/03/19 11:07:04;;;;;;;2.90;1.33;;;;;;;;;;5058195;28;20121;-80
2022/03/19 11:09:30;;;;;;;3.35;1.08;;;;;;;;;;5058783;28;20046;-80
2022/03/19 11:11:57;;;;;;;2.92;0.63;;;;;;;;;;5058462;28;20035;-81
2022/03/19 11:14:25;;;;;;;3.13;0.98;;;;;;;;;;5092290;28;20081;-81
2022/03/19 11:19:40;;;;;;;2.45;0.65;;;;;;;;;;5094617;28;20032;-81
2022/03/19 11:22:07;;;;;;;2.33;0.77;;;;;;;;;;5041913;28;20105;-81
2022/03/19 11:24:36;;;;;;;4.05;1.42;;;;;;;;;;5075003;28;20444;-81
2022/03/19 11:27:03;;;;;;;2.83;1.08;;;;;;;;;;5091385;28;20745;-82
2022/03/19 11:29:29;;;;;;;3.90;1.17;;;;;;;;;;5042365;28;20028;-81
2022/03/19 11:31:58;;;;;;;3.38;1.00;;;;;;;;;;5058135;28;20107;-81
2022/03/19 11:34:23;;;;;;;4.45;1.10;;;;;;;;;;5076654;28;20036;-81
2022/03/19 11:37:00;;;;;;;3.83;0.82;;;;;;;;;;5077999;28;20031;-81
2022/03/19 11:39:26;;;;;;;2.78;0.90;;;;;;;;;;5061697;28;20478;-81
2022/03/19 11:41:52;;;;;;;6.53;1.10;;;;;;;;;;5061484;28;20034;-81
2022/03/19 11:44:24;;;;;;;3.42;0.90;;;;;;;;;;5078301;28;20038;-81
2022/03/19 11:47:00;;;;;;;3.17;0.73;;;;;;;;;;5078745;28;20040;-81
2022/03/19 11:49:54;;;;;;;3.75;0.95;;;;;;;;;;5095390;28;20071;-81
2022/03/19 11:52:27;;;;;;;6.55;1.20;;;;;;;;;;5111602;28;20035;-81
2022/03/19 11:55:05;;;;;;;6.68;2.25;;;;;;;;;;5112007;28;20050;-81
2022/03/19 11:57:45;;;;;;;5.43;1.27;;;;;;;;;;5112815;28;20027;-81
2022/03/19 12:00:12;;;;;;;5.00;1.05;;;;;;;;;;5111876;28;20405;-81
2022/03/19 12:03:12;;;;;;;5.07;1.25;;;;;;;;;;5074598;28;20448;-81
2022/03/19 12:05:45;;;;;;;4.30;1.17;;;;;;;;;;5073835;28;20040;-81
2022/03/19 12:08:21;;;;;;;7.68;1.67;;;;;;;;;;5041539;28;20118;-81
2022/03/19 12:11:02;;;;;;;3.50;1.13;;;;;;;;;;5074366;28;20035;-81
2022/03/19 12:13:27;;;;;;;3.10;0.90;;;;;;;;;;5074645;28;20119;-81
2022/03/19 12:15:56;;;;;;;4.95;1.20;;;;;;;;;;5090632;28;20139;-81
2022/03/19 12:18:27;;;;;;;2.45;0.80;;;;;;;;;;5058109;28;20566;-81
2022/03/19 12:21:00;;;;;;;3.55;1.52;;;;;;;;;;5057507;28;20044;-81
2022/03/19 12:23:29;;;;;;;2.70;1.17;;;;;;;;;;5041387;28;20036;-81
2022/03/19 12:26:03;;;;;;;4.05;0.90;;;;;;;;;;5074279;28;20505;-81
2022/03/19 12:28:28;;;;;;;2.67;0.95;;;;;;;;;;5073914;28;20024;-81
2022/03/19 12:30:54;;;;;;;4.63;1.13;;;;;;;;;;5040688;28;20505;-81
2022/03/19 12:33:29;;;;;;;3.30;0.65;;;;;;;;;;5057519;28;20032;-81
2022/03/19 12:35:58;;;;;;;1.90;0.75;;;;;;;;;;5084592;28;20043;-81
2022/03/19 12:38:25;;;;;;;1.90;0.68;;;;;;;;;;5057829;28;20025;-81
2022/03/19 12:43:37;;;;;;;4.45;0.90;;;;;;;;;;5076497;28;20032;-81
2022/03/19 12:46:03;;;;;;;3.28;0.77;;;;;;;;;;5073994;28;20413;-81
2022/03/19 12:48:31;;;;;;;2.03;0.60;;;;;;;;;;5073323;28;20048;-81
2022/03/19 12:50:58;;;;;;;2.90;1.00;;;;;;;;;;5059877;28;20047;-81
2022/03/19 12:53:36;;;;;;;1.85;0.60;;;;;;;;;;5077146;28;20032;-81
2022/03/19 12:56:21;;;;;;;2.35;0.60;;;;;;;;;;5077041;28;20477;-81
2022/03/19 12:58:48;;;;;;;2.75;0.90;;;;;;;;;;5061535;28;20025;-81
2022/03/19 13:01:15;;;;;;;2.63;0.70;;;;;;;;;;5060521;28;20460;-82
2022/03/19 13:03:41;;;;;;;1.50;0.60;;;;;;;;;;5076844;28;20031;-81
2022/03/19 13:06:07;;;;;;;2.05;0.80;;;;;;;;;;5094140;28;20062;-82
2022/03/19 13:08:49;;;;;;;4.68;1.08;;;;;;;;;;5060111;28;20034;-81
2022/03/19 13:11:17;;;;;;;2.22;0.73;;;;;;;;;;5094704;28;20035;-81
2022/03/19 13:13:45;;;;;;;2.83;0.60;;;;;;;;;;5060355;28;20172;-81
2022/03/19 13:16:11;;;;;;;1.35;0.38;;;;;;;;;;5093542;28;20040;-81
2022/03/19 13:18:38;;;;;;;2.30;0.93;;;;;;;;;;5060099;28;20536;-82
2022/03/19 13:21:05;;;;;;;1.45;0.52;;;;;;;;;;5093662;28;20039;-81
2022/03/19 13:23:30;;;;;;;2.90;0.80;;;;;;;;;;5076698;28;20089;-81
2022/03/19 13:25:57;;;;;;;2.67;0.88;;;;;;;;;;5060177;28;20122;-81
2022/03/19 13:28:22;;;;;;;5.07;0.77;;;;;;;;;;5060172;28;20104;-81
2022/03/19 13:30:49;;;;;;;2.00;0.60;;;;;;;;;;5059792;28;20035;-81
2022/03/19 13:33:18;;;;;;;2.08;0.70;;;;;;;;;;5093767;28;20054;-82
2022/03/19 13:35:50;;;;;;;2.05;0.50;;;;;;;;;;5073347;28;20101;-81
2022/03/19 13:38:16;;;;;;;2.28;0.65;;;;;;;;;;5058743;28;20099;-81
2022/03/19 13:40:43;;;;;;;2.08;0.60;;;;;;;;;;5073186;28;20059;-82
2022/03/19 13:43:09;;;;;;;2.55;0.50;;;;;;;;;;5073418;28;20063;-82
2022/03/19 13:45:34;;;;;;;1.58;0.52;;;;;;;;;;5039393;28;20414;-81
2022/03/19 13:48:04;;;;;;;1.58;0.50;;;;;;;;;;5055988;28;20127;-81
2022/03/19 13:50:30;;;;;;;1.58;0.40;;;;;;;;;;5041219;28;20052;-81
2022/03/19 13:52:57;;;;;;;2.05;0.60;;;;;;;;;;5092046;28;20103;-81
2022/03/19 13:55:22;;;;;;;3.28;0.70;;;;;;;;;;5076831;28;20028;-81
2022/03/19 13:58:15;;;;;;;2.15;0.90;;;;;;;;;;5123205;27;20040;-81
2022/03/19 14:00:42;;;;;;;1.65;0.40;;;;;;;;;;5060148;28;20040;-82
2022/03/19 14:03:12;;;;;;;1.45;0.43;;;;;;;;;;5074361;28;20093;-81
2022/03/19 14:05:42;;;;;;;1.80;0.93;;;;;;;;;;5079873;28;20042;-81
2022/03/19 14:08:10;;;;;;;1.10;0.52;;;;;;;;;;5063867;28;20028;-81
2022/03/19 14:10:40;;;;;;;2.13;0.50;;;;;;;;;;5096973;28;20096;-81
2022/03/19 14:13:10;;;;;;;1.63;0.50;;;;;;;;;;5063694;28;20032;-81
2022/03/19 14:15:43;;;;;;;2.00;0.63;;;;;;;;;;5079393;28;20050;-82
2022/03/19 14:18:08;;;;;;;;;;;;;;;;;;5097591;28;20047;-81
2022/03/19 14:20:35;;;;;;;0.77;0.40;;;;;;;;;;5096653;28;19911;-82
2022/03/19 14:23:00;;;;;;;1.73;0.60;;;;;;;;;;5096837;28;20496;-81
2022/03/19 14:25:26;;;;;;;0.77;0.40;;;;;;;;;;5079597;28;20114;-81
2022/03/19 14:28:02;;;;;;;2.72;0.82;;;;;;;;;;5062711;28;20032;-81
2022/03/19 14:30:29;;;;;;;2.58;0.52;;;;;;;;;;5096464;28;20031;-81
2022/03/19 14:32:55;;;;;;;3.83;0.95;;;;;;;;;;5063207;28;20032;-82
2022/03/19 14:35:50;;;;;;;2.60;0.40;;;;;;;;;;5059382;28;20078;-81
2022/03/19 14:38:17;;;;;;;1.38;0.30;;;;;;;;;;5075902;28;20115;-82
2022/03/19 14:40:43;;;;;;;1.73;0.43;;;;;;;;;;5059481;28;20058;-82
2022/03/19 14:43:08;;;;;;;1.25;0.40;;;;;;;;;;5075897;28;20497;-81
2022/03/19 14:45:34;;;;;;;1.17;0.38;;;;;;;;;;5058657;28;20040;-81
2022/03/19 14:48:00;;;;;;;2.10;0.70;;;;;;;;;;5092143;28;20510;-81